createdAt,value
2018-08-09T00:01:09.024Z,62.87
2018-08-09T00:03:38.738Z,62.81
2018-08-09T00:06:08.512Z,62.61
2018-08-09T00:08:38.500Z,63.73
2018-08-09T00:11:08.372Z,63.02
2018-08-09T00:13:38.108Z,63.12
2018-08-09T00:16:07.824Z,62.84
2018-08-09T00:18:37.558Z,62.80
2018-08-09T00:21:07.382Z,62.42
2018-08-09T00:23:37.362Z,63.14
2018-08-09T00:26:07.215Z,62.48
2018-08-09T00:28:36.894Z,63.07
2018-08-09T00:31:06.672Z,63.09
2018-08-09T00:33:36.694Z,62.76
2018-08-09T00:36:06.399Z,62.50
2018-08-09T00:38:36.107Z,62.84
2018-08-09T00:41:05.791Z,62.56
2018-08-09T00:43:35.887Z,63.55
2018-08-09T00:46:05.812Z,63.41
2018-08-09T00:48:35.479Z,63.44
2018-08-09T00:51:05.191Z,64.10
2018-08-09T00:53:35.003Z,63.54
2018-08-09T00:56:04.724Z,63.21
2018-08-09T00:58:34.450Z,63.44
2018-08-09T01:01:04.274Z,63.48
2018-08-09T01:03:34.018Z,62.81
2018-08-09T01:06:03.818Z,64.22
2018-08-09T01:08:33.576Z,65.00
2018-08-09T01:11:03.374Z,65.42
2018-08-09T01:13:33.213Z,64.89
2018-08-09T01:16:02.954Z,64.15
2018-08-09T01:18:32.749Z,64.04
2018-08-09T01:21:02.461Z,63.84
2018-08-09T01:23:32.241Z,63.70
2018-08-09T01:26:01.952Z,64.36
2018-08-09T01:28:31.675Z,63.75
2018-08-09T01:31:01.406Z,63.68
2018-08-09T01:33:31.136Z,63.96
2018-08-09T01:36:00.814Z,65.47
2018-08-09T01:38:30.530Z,66.27
2018-08-09T01:41:00.301Z,66.04
2018-08-09T01:43:41.108Z,66.37
2018-08-09T01:46:10.857Z,67.86
2018-08-09T01:48:40.564Z,66.31
2018-08-09T01:51:10.295Z,66.31
2018-08-09T01:53:39.984Z,66.11
2018-08-09T01:56:09.710Z,65.73
2018-08-09T01:58:40.018Z,65.61
2018-08-09T02:01:09.738Z,66.25
2018-08-09T02:03:39.487Z,66.83
2018-08-09T02:06:09.199Z,66.80
2018-08-09T02:08:38.892Z,66.46
2018-08-09T02:11:10.007Z,65.82
2018-08-09T02:13:39.688Z,66.60
2018-08-09T02:16:09.491Z,66.44
2018-08-09T02:18:39.607Z,65.92
2018-08-09T02:21:10.397Z,65.35
2018-08-09T02:23:40.106Z,66.61
2018-08-09T02:26:09.796Z,66.59
2018-08-09T02:28:39.564Z,66.09
2018-08-09T02:31:09.323Z,66.93
2018-08-09T02:33:39.090Z,67.15
2018-08-09T02:36:08.921Z,66.69
2018-08-09T02:38:38.622Z,67.34
2018-08-09T02:41:08.360Z,66.91
2018-08-09T02:43:38.044Z,68.05
2018-08-09T02:46:07.741Z,69.59
2018-08-09T02:48:37.488Z,68.55
2018-08-09T02:51:07.169Z,68.85
2018-08-09T02:53:36.910Z,67.27
2018-08-09T02:56:06.695Z,66.72
2018-08-09T02:58:36.677Z,66.31
2018-08-09T03:01:06.467Z,66.60
2018-08-09T03:03:36.178Z,66.81
2018-08-09T03:06:06.009Z,67.11
2018-08-09T03:08:35.774Z,67.35
2018-08-09T03:11:05.475Z,67.08
2018-08-09T03:13:35.235Z,67.70
2018-08-09T03:16:05.006Z,68.70
2018-08-09T03:18:34.728Z,67.84
2018-08-09T03:21:04.494Z,68.10
2018-08-09T03:23:34.205Z,68.65
2018-08-09T03:26:04.143Z,69.04
2018-08-09T03:28:34.126Z,68.88
2018-08-09T03:31:03.921Z,69.13
2018-08-09T03:33:33.916Z,68.76
2018-08-09T03:36:03.683Z,69.83
2018-08-09T03:38:33.424Z,68.73
2018-08-09T03:41:03.126Z,69.22
2018-08-09T03:43:32.807Z,70.24
2018-08-09T03:46:02.585Z,70.33
2018-08-09T03:48:32.596Z,70.34
2018-08-09T03:51:02.383Z,71.04
2018-08-09T03:53:32.129Z,70.94
2018-08-09T03:56:01.859Z,70.14
2018-08-09T03:58:31.580Z,69.50
2018-08-09T04:01:01.292Z,69.62
2018-08-09T04:03:31.136Z,70.48
2018-08-09T04:06:00.860Z,69.32
2018-08-09T04:08:30.580Z,69.09
2018-08-09T04:11:00.336Z,68.78
2018-08-09T04:13:30.036Z,69.14
2018-08-09T04:15:59.842Z,69.14
2018-08-09T04:18:30.113Z,69.57
2018-08-09T04:20:59.808Z,69.66
2018-08-09T04:23:29.499Z,69.84
2018-08-09T04:25:59.231Z,69.86
2018-08-09T04:28:28.928Z,69.94
2018-08-09T04:30:58.614Z,70.04
2018-08-09T04:33:28.359Z,69.92
2018-08-09T04:35:58.030Z,70.27
2018-08-09T04:38:28.131Z,69.92
2018-08-09T04:40:57.876Z,70.17
2018-08-09T04:43:27.700Z,70.15
2018-08-09T04:45:57.460Z,69.86
2018-08-09T04:48:27.212Z,69.84
2018-08-09T04:50:56.900Z,69.87
2018-08-09T04:53:26.635Z,70.00
2018-08-09T04:55:56.325Z,69.88
2018-08-09T04:58:26.048Z,69.77
2018-08-09T05:00:56.017Z,70.26
2018-08-09T05:03:25.753Z,69.90
2018-08-09T05:05:55.464Z,69.79
2018-08-09T05:08:25.239Z,69.39
2018-08-09T05:10:55.021Z,69.60
2018-08-09T05:13:24.727Z,68.84
2018-08-09T05:15:54.514Z,69.18
2018-08-09T05:18:24.217Z,69.24
2018-08-09T05:20:53.922Z,68.74
2018-08-09T05:23:23.607Z,69.08
2018-08-09T05:25:53.264Z,68.94
2018-08-09T05:28:22.937Z,69.62
2018-08-09T05:30:52.679Z,69.47
2018-08-09T05:33:22.356Z,69.79
2018-08-09T05:35:52.095Z,69.60
2018-08-09T05:38:21.739Z,69.62
2018-08-09T05:40:51.405Z,69.86
2018-08-09T05:43:21.099Z,69.85
2018-08-09T05:45:50.768Z,70.07
2018-08-09T05:48:20.555Z,69.37
2018-08-09T05:50:50.376Z,69.38
2018-08-09T05:53:20.155Z,68.44
2018-08-09T05:55:49.866Z,68.62
2018-08-09T05:58:19.618Z,68.10
2018-08-09T06:00:49.352Z,67.73
2018-08-09T06:03:19.103Z,67.89
2018-08-09T06:05:49.373Z,67.19
2018-08-09T06:08:19.402Z,68.00
2018-08-09T06:10:49.128Z,66.90
2018-08-09T06:13:18.847Z,67.19
2018-08-09T06:15:48.643Z,67.43
2018-08-09T06:18:18.484Z,67.78
2018-08-09T06:20:48.243Z,67.28
2018-08-09T06:23:18.036Z,67.46
2018-08-09T06:25:47.749Z,66.43
2018-08-09T06:28:17.642Z,66.02
2018-08-09T06:30:47.428Z,66.40
2018-08-09T06:33:17.194Z,65.37
2018-08-09T06:35:48.524Z,64.49
2018-08-09T06:38:18.477Z,64.84
2018-08-09T06:40:48.262Z,64.36
2018-08-09T06:43:17.964Z,64.57
2018-08-09T06:45:48.332Z,65.25
2018-08-09T06:48:18.067Z,64.43
2018-08-09T06:50:47.832Z,63.97
2018-08-09T06:53:17.535Z,64.76
2018-08-09T06:55:47.287Z,65.27
2018-08-09T06:58:18.056Z,64.85
2018-08-09T07:00:48.155Z,64.45
2018-08-09T07:03:17.868Z,64.17
2018-08-09T07:05:47.616Z,64.67
2018-08-09T07:08:17.322Z,64.46
2018-08-09T07:10:47.027Z,64.09
2018-08-09T07:13:16.765Z,63.45
2018-08-09T07:15:46.532Z,62.93
2018-08-09T07:18:16.289Z,63.19
2018-08-09T07:20:45.999Z,63.49
2018-08-09T07:23:15.677Z,63.16
2018-08-09T07:25:45.441Z,63.49
2018-08-09T07:28:15.299Z,62.73
2018-08-09T07:30:45.067Z,62.36
2018-08-09T07:33:14.801Z,60.86
2018-08-09T07:35:44.904Z,60.72
2018-08-09T07:38:14.631Z,59.70
2018-08-09T07:40:44.346Z,59.88
2018-08-09T07:43:14.080Z,59.60
2018-08-09T07:45:43.894Z,59.69
2018-08-09T07:48:13.599Z,59.28
2018-08-09T07:50:43.776Z,58.65
2018-08-09T07:53:13.511Z,57.82
2018-08-09T07:55:43.281Z,57.22
2018-08-09T07:58:12.960Z,57.58
2018-08-09T08:00:42.711Z,56.52
2018-08-09T08:03:12.475Z,57.02
2018-08-09T08:05:42.557Z,57.53
2018-08-09T08:08:12.313Z,56.48
2018-08-09T08:10:42.021Z,56.95
2018-08-09T08:13:11.728Z,56.62
2018-08-09T08:15:41.487Z,55.99
2018-08-09T08:18:11.216Z,55.21
2018-08-09T08:20:41.236Z,54.59
2018-08-09T08:23:11.315Z,54.94
2018-08-09T08:25:41.566Z,55.03
2018-08-09T08:28:11.274Z,54.23
2018-08-09T08:30:41.523Z,54.36
2018-08-09T08:33:11.199Z,54.58
2018-08-09T08:35:41.257Z,53.28
2018-08-09T08:38:11.227Z,53.67
2018-08-09T08:40:40.914Z,52.62
2018-08-09T08:43:10.660Z,53.10
2018-08-09T08:45:40.471Z,52.67
2018-08-09T08:48:10.192Z,51.68
2018-08-09T08:50:39.890Z,52.96
2018-08-09T08:53:09.675Z,50.98
2018-08-09T08:55:39.379Z,50.90
2018-08-09T08:58:09.137Z,51.44
2018-08-09T09:00:39.280Z,50.63
2018-08-09T09:03:09.055Z,49.69
2018-08-09T09:05:38.759Z,50.92
2018-08-09T09:08:08.569Z,50.47
2018-08-09T09:10:38.253Z,50.23
2018-08-09T09:13:07.991Z,49.21
2018-08-09T09:15:37.724Z,49.21
2018-08-09T09:18:07.518Z,49.84
2018-08-09T09:20:37.305Z,49.32
2018-08-09T09:23:07.023Z,48.44
2018-08-09T09:25:36.740Z,47.93
2018-08-09T09:28:06.521Z,47.68
2018-08-09T09:30:36.221Z,48.04
2018-08-09T09:33:06.184Z,47.82
2018-08-09T09:35:35.885Z,47.23
2018-08-09T09:38:06.060Z,46.99
2018-08-09T09:40:35.796Z,46.51
2018-08-09T09:43:06.261Z,46.30
2018-08-09T09:45:35.991Z,46.44
2018-08-09T09:48:05.759Z,47.97
2018-08-09T09:50:36.045Z,47.66
2018-08-09T09:53:05.796Z,47.54
2018-08-09T09:55:35.538Z,47.40
2018-08-09T09:58:05.290Z,46.60
2018-08-09T10:00:39.063Z,46.57
2018-08-09T10:03:08.799Z,46.44
2018-08-09T10:05:38.477Z,45.75
2018-08-09T10:08:08.188Z,46.03
2018-08-09T10:10:37.908Z,45.99
2018-08-09T10:13:07.570Z,45.33
2018-08-09T10:15:37.630Z,45.50
2018-08-09T10:18:07.316Z,44.80
2018-08-09T10:20:37.020Z,45.17
2018-08-09T10:23:07.176Z,44.94
2018-08-09T10:25:36.855Z,44.01
2018-08-09T10:28:06.879Z,44.47
2018-08-09T10:30:36.620Z,43.37
2018-08-09T10:33:06.380Z,43.27
2018-08-09T10:35:36.137Z,42.97
2018-08-09T10:38:05.833Z,42.37
2018-08-09T10:40:35.548Z,42.55
2018-08-09T10:43:05.284Z,43.11
2018-08-09T10:45:34.965Z,43.18
2018-08-09T10:48:04.687Z,43.06
2018-08-09T10:50:34.607Z,43.17
2018-08-09T10:53:04.449Z,42.50
2018-08-09T10:55:34.194Z,43.09
2018-08-09T10:58:03.941Z,43.79
2018-08-09T11:00:33.680Z,43.17
2018-08-09T11:03:03.393Z,43.00
2018-08-09T11:05:33.496Z,43.76
2018-08-09T11:08:03.204Z,42.75
2018-08-09T11:10:32.917Z,42.45
2018-08-09T11:13:02.583Z,42.58
2018-08-09T11:15:32.276Z,42.20
2018-08-09T11:18:02.044Z,42.47
2018-08-09T11:20:31.721Z,41.20
2018-08-09T11:23:01.417Z,41.13
2018-08-09T11:25:31.226Z,40.59
2018-08-09T11:28:00.935Z,40.83
2018-08-09T11:30:30.639Z,40.30
2018-08-09T11:33:00.728Z,41.01
2018-08-09T11:35:30.424Z,40.57
2018-08-09T11:38:00.162Z,41.11
2018-08-09T11:40:29.846Z,40.09
2018-08-09T11:42:59.604Z,39.31
2018-08-09T11:45:29.284Z,39.67
2018-08-09T11:47:59.032Z,40.04
2018-08-09T11:50:28.811Z,39.53
2018-08-09T11:52:58.560Z,39.10
2018-08-09T11:55:28.311Z,39.53
2018-08-09T11:57:58.016Z,38.71
2018-08-09T12:00:27.733Z,38.88
2018-08-09T12:02:57.932Z,38.52
2018-08-09T12:05:27.617Z,39.69
2018-08-09T12:07:57.468Z,38.27
2018-08-09T12:10:27.643Z,38.40
2018-08-09T12:12:57.423Z,38.87
2018-08-09T12:15:27.498Z,38.44
2018-08-09T12:17:57.296Z,38.67
2018-08-09T12:20:27.016Z,38.24
2018-08-09T12:22:57.121Z,39.06
2018-08-09T12:25:26.893Z,38.80
2018-08-09T12:27:56.719Z,38.52
2018-08-09T12:30:26.850Z,39.03
2018-08-09T12:32:57.043Z,38.43
2018-08-09T12:35:26.812Z,38.44
2018-08-09T12:37:56.549Z,38.92
2018-08-09T12:40:26.281Z,39.10
2018-08-09T12:42:56.278Z,38.23
2018-08-09T12:45:26.014Z,37.53
2018-08-09T12:47:56.056Z,38.31
2018-08-09T12:50:25.819Z,37.23
2018-08-09T12:52:55.491Z,37.34
2018-08-09T12:55:25.673Z,37.70
2018-08-09T12:57:55.355Z,38.00
2018-08-09T13:00:25.192Z,37.65
2018-08-09T13:02:55.956Z,37.96
2018-08-09T13:05:25.780Z,36.71
2018-08-09T13:07:55.483Z,37.28
2018-08-09T13:10:25.333Z,37.02
2018-08-09T13:12:55.130Z,37.08
2018-08-09T13:15:24.933Z,37.15
2018-08-09T13:17:54.741Z,36.87
2018-08-09T13:20:24.519Z,37.27
2018-08-09T13:22:54.299Z,37.55
2018-08-09T13:25:24.041Z,37.77
2018-08-09T13:27:53.784Z,37.91
2018-08-09T13:30:23.668Z,38.09
2018-08-09T13:32:53.353Z,38.65
2018-08-09T13:35:23.117Z,38.00
2018-08-09T13:37:52.982Z,38.57
2018-08-09T13:40:22.779Z,38.65
2018-08-09T13:42:52.618Z,39.39
2018-08-09T13:45:22.339Z,39.00
2018-08-09T13:47:52.198Z,38.93
2018-08-09T13:50:21.935Z,37.12
2018-08-09T13:52:51.689Z,37.76
2018-08-09T13:55:21.468Z,37.36
2018-08-09T13:57:51.200Z,37.33
2018-08-09T14:00:21.000Z,37.60
2018-08-09T14:02:51.076Z,37.38
2018-08-09T14:05:20.844Z,36.23
2018-08-09T14:07:50.613Z,36.97
2018-08-09T14:10:20.392Z,37.79
2018-08-09T14:12:50.072Z,37.71
2018-08-09T14:15:19.835Z,37.70
2018-08-09T14:17:49.688Z,37.10
2018-08-09T14:20:19.406Z,36.99
2018-08-09T14:22:55.485Z,36.69
2018-08-09T14:25:25.212Z,36.83
2018-08-09T14:27:54.936Z,35.43
2018-08-09T14:30:24.770Z,34.35
2018-08-09T14:32:54.523Z,35.33
2018-08-09T14:35:24.312Z,34.57
2018-08-09T14:37:54.174Z,34.66
2018-08-09T14:40:24.152Z,35.14
2018-08-09T14:42:53.924Z,35.50
2018-08-09T14:45:23.669Z,35.42
2018-08-09T14:47:53.479Z,35.63
2018-08-09T14:50:23.270Z,34.57
2018-08-09T14:52:53.057Z,34.59
2018-08-09T14:55:22.769Z,35.35
2018-08-09T14:57:52.606Z,34.37
2018-08-09T15:00:23.022Z,35.53
2018-08-09T15:02:52.902Z,35.16
2018-08-09T15:05:22.914Z,34.67
2018-08-09T15:07:53.184Z,35.23
2018-08-09T15:10:22.983Z,34.81
2018-08-09T15:12:53.089Z,35.06
2018-08-09T15:15:23.127Z,36.26
2018-08-09T15:17:52.880Z,39.25
2018-08-09T15:20:22.602Z,41.86
2018-08-09T15:22:52.373Z,43.99
2018-08-09T15:25:22.648Z,45.95
2018-08-09T15:27:52.407Z,50.11
2018-08-09T15:30:22.204Z,55.40
2018-08-09T15:32:52.397Z,60.02
2018-08-09T15:35:22.792Z,65.13
2018-08-09T15:37:52.552Z,64.69
2018-08-09T15:40:22.349Z,67.51
2018-08-09T15:42:52.067Z,64.28
2018-08-09T15:45:21.818Z,64.61
2018-08-09T15:47:51.595Z,65.58
2018-08-09T15:50:21.450Z,66.98
2018-08-09T15:52:51.229Z,66.58
2018-08-09T15:55:21.385Z,69.24
2018-08-09T15:57:51.093Z,68.23
2018-08-09T16:00:23.128Z,67.93
2018-08-09T16:02:53.450Z,68.16
2018-08-09T16:05:23.188Z,72.31
2018-08-09T16:07:52.914Z,71.91
2018-08-09T16:10:22.676Z,72.74
2018-08-09T16:12:52.533Z,73.48
2018-08-09T16:15:22.357Z,74.36
2018-08-09T16:17:52.380Z,72.92
2018-08-09T16:20:22.313Z,72.56
2018-08-09T16:22:52.159Z,73.06
2018-08-09T16:25:21.972Z,73.16
2018-08-09T16:27:51.734Z,73.05
2018-08-09T16:30:23.770Z,74.55
2018-08-09T16:32:53.692Z,74.80
2018-08-09T16:35:23.376Z,74.08
2018-08-09T16:37:53.207Z,74.32
2018-08-09T16:40:25.129Z,73.84
2018-08-09T16:42:55.058Z,72.84
2018-08-09T16:45:25.363Z,71.52
2018-08-09T16:47:55.649Z,73.30
2018-08-09T16:50:26.230Z,74.18
2018-08-09T16:52:56.061Z,74.47
2018-08-09T16:55:26.579Z,75.05
2018-08-09T16:57:56.442Z,74.83
2018-08-09T17:00:26.628Z,76.03
2018-08-09T17:02:56.574Z,73.58
2018-08-09T17:05:27.482Z,74.87
2018-08-09T17:07:57.540Z,73.76
2018-08-09T17:10:28.784Z,73.85
2018-08-09T17:12:58.633Z,73.61
2018-08-09T17:15:35.882Z,72.46
2018-08-09T17:18:06.098Z,73.30
2018-08-09T17:20:35.874Z,73.34
2018-08-09T17:23:06.334Z,73.43
2018-08-09T17:25:36.505Z,72.00
2018-08-09T17:28:06.565Z,72.41
2018-08-09T17:30:36.432Z,72.52
2018-08-09T17:33:06.263Z,71.96
2018-08-09T17:35:36.022Z,71.41
2018-08-09T17:38:05.986Z,72.22
2018-08-09T17:40:35.814Z,72.93
2018-08-09T17:43:06.003Z,72.51
2018-08-09T17:45:36.461Z,74.52
2018-08-09T17:48:07.161Z,74.06
2018-08-09T17:50:36.891Z,74.35
2018-08-09T17:53:07.972Z,73.81
2018-08-09T17:55:37.738Z,73.19
2018-08-09T17:58:07.471Z,72.99
2018-08-09T18:00:37.475Z,73.64
2018-08-09T18:03:07.247Z,72.84
2018-08-09T18:05:37.093Z,74.34
2018-08-09T18:08:06.904Z,73.83
2018-08-09T18:10:37.165Z,74.35
2018-08-09T18:13:06.936Z,73.01
2018-08-09T18:15:36.705Z,73.28
2018-08-09T18:18:07.163Z,74.09
2018-08-09T18:20:38.004Z,74.25
2018-08-09T18:23:08.090Z,74.91
2018-08-09T18:25:37.796Z,74.19
2018-08-09T18:28:08.614Z,73.59
2018-08-09T18:30:38.381Z,73.10
2018-08-09T18:33:08.194Z,72.25
2018-08-09T18:35:37.931Z,72.70
2018-08-09T18:38:07.779Z,73.90
2018-08-09T18:40:37.524Z,75.22
2018-08-09T18:43:07.293Z,74.27
2018-08-09T18:45:37.111Z,74.05
2018-08-09T18:48:06.868Z,71.17
2018-08-09T18:50:36.580Z,71.12
2018-08-09T18:53:06.431Z,71.53
2018-08-09T18:58:27.253Z,71.44
2018-08-09T19:00:57.077Z,73.84
2018-08-09T19:03:26.895Z,74.91
2018-08-09T19:05:56.623Z,73.25
2018-08-09T19:08:26.485Z,73.16
2018-08-09T19:10:56.248Z,73.78
2018-08-09T19:13:26.079Z,73.69
2018-08-09T19:15:56.404Z,72.90
2018-08-09T19:18:26.164Z,73.93
2018-08-09T19:20:55.880Z,72.84
2018-08-09T19:23:25.604Z,73.61
2018-08-09T19:25:55.384Z,73.47
2018-08-09T19:28:25.112Z,72.51
2018-08-09T19:30:54.869Z,72.55
2018-08-09T19:33:24.648Z,72.33
2018-08-09T19:35:54.377Z,72.00
2018-08-09T19:38:24.231Z,72.17
2018-08-09T19:40:54.024Z,71.83
2018-08-09T19:43:23.727Z,71.70
2018-08-09T19:45:53.545Z,71.55
2018-08-09T19:48:23.351Z,72.20
2018-08-09T19:50:53.503Z,71.91
2018-08-09T19:53:23.227Z,71.55
2018-08-09T19:55:53.089Z,73.28
2018-08-09T19:58:23.180Z,72.40
2018-08-09T20:00:52.919Z,73.12
2018-08-09T20:03:22.839Z,73.12
2018-08-09T20:05:53.248Z,72.63
2018-08-09T20:08:23.048Z,72.54
2018-08-09T20:10:52.824Z,72.58
2018-08-09T20:13:22.644Z,72.59
2018-08-09T20:15:52.567Z,72.56
2018-08-09T20:18:22.428Z,72.03
2018-08-09T20:20:52.189Z,71.13
2018-08-09T20:23:21.901Z,70.21
2018-08-09T20:25:51.632Z,70.57
2018-08-09T20:28:21.406Z,70.31
2018-08-09T20:30:51.438Z,71.02
2018-08-09T20:33:21.261Z,70.88
2018-08-09T20:35:51.057Z,70.83
2018-08-09T20:38:21.219Z,71.34
2018-08-09T20:40:50.976Z,71.33
2018-08-09T20:43:20.710Z,71.50
2018-08-09T20:45:50.506Z,70.98
2018-08-09T20:48:20.324Z,70.76
2018-08-09T20:50:50.032Z,70.99
2018-08-09T20:53:19.771Z,71.36
2018-08-09T20:55:49.556Z,71.19
2018-08-09T20:58:19.301Z,71.23
2018-08-09T21:00:49.033Z,72.23
2018-08-09T21:03:18.859Z,71.81
2018-08-09T21:05:48.660Z,72.18
2018-08-09T21:08:18.397Z,71.30
2018-08-09T21:10:48.297Z,72.44
2018-08-09T21:13:18.017Z,72.86
2018-08-09T21:15:47.757Z,71.90
2018-08-09T21:18:17.623Z,72.70
2018-08-09T21:20:47.367Z,72.69
2018-08-09T21:23:17.183Z,71.80
2018-08-09T21:25:47.688Z,72.21
2018-08-09T21:28:17.487Z,71.62
2018-08-09T21:30:47.265Z,70.86
2018-08-09T21:33:16.979Z,71.65
2018-08-09T21:35:46.772Z,71.78
2018-08-09T21:38:16.498Z,71.44
2018-08-09T21:40:46.253Z,71.40
2018-08-09T21:43:16.017Z,72.06
2018-08-09T21:45:45.768Z,71.95
2018-08-09T21:48:15.497Z,71.96
2018-08-09T21:50:45.262Z,72.28
2018-08-09T21:53:14.975Z,72.52
2018-08-09T21:55:44.672Z,72.54
2018-08-09T21:58:14.519Z,72.45
2018-08-09T22:01:02.725Z,72.93
2018-08-09T22:03:35.656Z,72.42
2018-08-09T22:06:10.628Z,71.77
2018-08-09T22:09:49.633Z,71.68
2018-08-09T22:12:24.487Z,71.98
2018-08-09T22:14:59.449Z,71.76
2018-08-09T22:17:34.344Z,71.71
2018-08-09T22:21:11.184Z,72.05
2018-08-09T22:23:40.955Z,71.26
2018-08-09T22:26:11.360Z,71.62
2018-08-09T22:28:41.446Z,71.76
2018-08-09T22:31:11.260Z,70.76
2018-08-09T22:33:40.969Z,71.34
2018-08-09T22:36:10.713Z,71.27
2018-08-09T22:38:41.063Z,70.24
2018-08-09T22:41:10.840Z,71.04
2018-08-09T22:43:40.614Z,70.77
2018-08-09T22:46:10.715Z,71.55
2018-08-09T22:48:40.469Z,70.48
2018-08-09T22:51:10.204Z,71.11
2018-08-09T22:53:39.963Z,71.67
2018-08-09T22:56:09.709Z,70.81
2018-08-09T22:58:39.516Z,71.19
2018-08-09T23:01:09.780Z,71.39
2018-08-09T23:03:39.603Z,71.33
2018-08-09T23:06:09.543Z,72.32
2018-08-09T23:08:39.352Z,71.33
2018-08-09T23:11:09.056Z,70.91
2018-08-09T23:13:38.812Z,70.59
2018-08-09T23:16:08.930Z,71.08
2018-08-09T23:18:38.636Z,70.67
2018-08-09T23:21:08.437Z,70.84
2018-08-09T23:23:38.200Z,69.78
2018-08-09T23:26:07.948Z,69.68
2018-08-09T23:28:37.697Z,70.64
2018-08-09T23:31:08.009Z,70.36
2018-08-09T23:33:37.803Z,70.19
2018-08-09T23:36:07.548Z,69.81
2018-08-09T23:38:37.890Z,68.96
2018-08-09T23:41:07.616Z,68.03
2018-08-09T23:43:37.380Z,67.09
2018-08-09T23:46:07.099Z,67.13
2018-08-09T23:48:36.809Z,66.23
2018-08-09T23:51:06.581Z,67.77
2018-08-09T23:53:36.271Z,66.47
2018-08-09T23:56:05.991Z,65.45
2018-08-09T23:58:35.746Z,63.19
